sensor_id;sensor_type;location;lat;lon;timestamp;P1;durP1;ratioP1;P2;durP2;ratioP2
65077;SDS011;51672;51.230;-2.322;2023-01-30T00:02:02;8.57;;;2.20;;
65077;SDS011;51672;51.230;-2.322;2023-01-30T00:05:44;7.90;;;2.35;;
65077;SDS011;51672;51.230;-2.322;2023-01-30T00:09:26;9.63;;;3.00;;
65077;SDS011;51672;51.230;-2.322;2023-01-30T00:13:08;7.07;;;2.10;;
65077;SDS011;51672;51.230;-2.322;2023-01-30T00:16:51;7.93;;;1.83;;
65077;SDS011;51672;51.230;-2.322;2023-01-30T00:20:33;5.90;;;1.98;;
65077;SDS011;51672;51.230;-2.322;2023-01-30T00:24:15;6.70;;;1.90;;
65077;SDS011;51672;51.230;-2.322;2023-01-30T00:28:01;8.05;;;2.40;;
65077;SDS011;51672;51.230;-2.322;2023-01-30T00:31:43;9.38;;;1.80;;
65077;SDS011;51672;51.230;-2.322;2023-01-30T00:35:25;7.97;;;1.80;;
65077;SDS011;51672;51.230;-2.322;2023-01-30T00:39:09;6.50;;;1.73;;
65077;SDS011;51672;51.230;-2.322;2023-01-30T00:42:51;6.00;;;1.45;;
65077;SDS011;51672;51.230;-2.322;2023-01-30T00:46:51;7.33;;;1.20;;
65077;SDS011;51672;51.230;-2.322;2023-01-30T00:50:45;4.95;;;1.23;;
65077;SDS011;51672;51.230;-2.322;2023-01-30T00:54:27;5.30;;;1.00;;
65077;SDS011;51672;51.230;-2.322;2023-01-30T00:58:09;5.95;;;1.05;;
65077;SDS011;51672;51.230;-2.322;2023-01-30T01:01:52;7.93;;;1.08;;
65077;SDS011;51672;51.230;-2.322;2023-01-30T01:05:34;5.43;;;1.10;;
65077;SDS011;51672;51.230;-2.322;2023-01-30T01:09:16;5.00;;;1.20;;
65077;SDS011;51672;51.230;-2.322;2023-01-30T01:12:58;9.07;;;1.30;;
65077;SDS011;51672;51.230;-2.322;2023-01-30T01:16:40;5.38;;;1.38;;
65077;SDS011;51672;51.230;-2.322;2023-01-30T01:20:22;7.65;;;1.70;;
65077;SDS011;51672;51.230;-2.322;2023-01-30T01:24:04;6.97;;;1.70;;
65077;SDS011;51672;51.230;-2.322;2023-01-30T01:27:47;5.72;;;1.30;;
65077;SDS011;51672;51.230;-2.322;2023-01-30T01:31:30;7.75;;;1.50;;
65077;SDS011;51672;51.230;-2.322;2023-01-30T01:35:12;5.85;;;1.70;;
65077;SDS011;51672;51.230;-2.322;2023-01-30T01:38:53;6.60;;;1.40;;
65077;SDS011;51672;51.230;-2.322;2023-01-30T01:42:36;6.00;;;1.30;;
65077;SDS011;51672;51.230;-2.322;2023-01-30T01:46:22;5.95;;;1.27;;
65077;SDS011;51672;51.230;-2.322;2023-01-30T01:50:11;7.43;;;1.47;;
65077;SDS011;51672;51.230;-2.322;2023-01-30T01:54:18;5.50;;;1.55;;
65077;SDS011;51672;51.230;-2.322;2023-01-30T01:58:33;5.57;;;1.30;;
65077;SDS011;51672;51.230;-2.322;2023-01-30T02:02:20;6.00;;;1.53;;
65077;SDS011;51672;51.230;-2.322;2023-01-30T02:06:02;10.43;;;1.70;;
65077;SDS011;51672;51.230;-2.322;2023-01-30T02:09:45;9.60;;;1.67;;
65077;SDS011;51672;51.230;-2.322;2023-01-30T02:13:27;10.27;;;1.58;;
65077;SDS011;51672;51.230;-2.322;2023-01-30T02:17:09;10.23;;;1.13;;
65077;SDS011;51672;51.230;-2.322;2023-01-30T02:33:36;8.05;;;1.30;;
65077;SDS011;51672;51.230;-2.322;2023-01-30T02:37:28;8.93;;;1.58;;
65077;SDS011;51672;51.230;-2.322;2023-01-30T02:45:24;12.27;;;2.70;;
65077;SDS011;51672;51.230;-2.322;2023-01-30T02:49:35;12.50;;;3.10;;
65077;SDS011;51672;51.230;-2.322;2023-01-30T02:53:21;13.70;;;3.53;;
65077;SDS011;51672;51.230;-2.322;2023-01-30T02:57:14;17.58;;;4.50;;
65077;SDS011;51672;51.230;-2.322;2023-01-30T03:01:14;19.25;;;4.18;;
65077;SDS011;51672;51.230;-2.322;2023-01-30T03:05:28;16.63;;;3.40;;
65077;SDS011;51672;51.230;-2.322;2023-01-30T03:09:36;13.60;;;4.13;;
65077;SDS011;51672;51.230;-2.322;2023-01-30T03:13:41;14.13;;;4.13;;
65077;SDS011;51672;51.230;-2.322;2023-01-30T03:17:26;17.95;;;4.05;;
65077;SDS011;51672;51.230;-2.322;2023-01-30T03:21:09;12.83;;;3.73;;
65077;SDS011;51672;51.230;-2.322;2023-01-30T03:24:52;15.82;;;3.90;;
65077;SDS011;51672;51.230;-2.322;2023-01-30T03:28:35;13.27;;;3.90;;
65077;SDS011;51672;51.230;-2.322;2023-01-30T03:32:17;13.48;;;3.78;;
65077;SDS011;51672;51.230;-2.322;2023-01-30T03:35:59;13.88;;;3.75;;
65077;SDS011;51672;51.230;-2.322;2023-01-30T03:39:42;19.08;;;4.25;;
65077;SDS011;51672;51.230;-2.322;2023-01-30T03:43:24;18.70;;;3.78;;
65077;SDS011;51672;51.230;-2.322;2023-01-30T03:47:06;15.47;;;3.73;;
65077;SDS011;51672;51.230;-2.322;2023-01-30T03:50:48;16.65;;;3.88;;
65077;SDS011;51672;51.230;-2.322;2023-01-30T03:54:30;13.13;;;3.15;;
65077;SDS011;51672;51.230;-2.322;2023-01-30T03:58:12;15.37;;;3.97;;
65077;SDS011;51672;51.230;-2.322;2023-01-30T04:01:53;13.70;;;3.67;;
65077;SDS011;51672;51.230;-2.322;2023-01-30T04:05:35;17.88;;;3.78;;
65077;SDS011;51672;51.230;-2.322;2023-01-30T04:09:18;18.85;;;4.22;;
65077;SDS011;51672;51.230;-2.322;2023-01-30T04:13:00;10.63;;;3.63;;
65077;SDS011;51672;51.230;-2.322;2023-01-30T04:16:41;16.95;;;3.88;;
65077;SDS011;51672;51.230;-2.322;2023-01-30T04:20:24;15.35;;;4.20;;
65077;SDS011;51672;51.230;-2.322;2023-01-30T04:24:05;14.97;;;4.53;;
65077;SDS011;51672;51.230;-2.322;2023-01-30T04:27:47;17.48;;;4.43;;
65077;SDS011;51672;51.230;-2.322;2023-01-30T04:31:29;16.65;;;4.35;;
65077;SDS011;51672;51.230;-2.322;2023-01-30T04:35:12;17.37;;;4.50;;
65077;SDS011;51672;51.230;-2.322;2023-01-30T04:38:54;19.13;;;5.03;;
65077;SDS011;51672;51.230;-2.322;2023-01-30T04:42:37;20.02;;;4.85;;
65077;SDS011;51672;51.230;-2.322;2023-01-30T04:46:19;20.90;;;4.82;;
65077;SDS011;51672;51.230;-2.322;2023-01-30T04:50:01;25.70;;;5.03;;
65077;SDS011;51672;51.230;-2.322;2023-01-30T04:53:43;23.52;;;5.38;;
65077;SDS011;51672;51.230;-2.322;2023-01-30T04:57:25;20.15;;;4.60;;
65077;SDS011;51672;51.230;-2.322;2023-01-30T05:01:11;26.83;;;3.90;;
65077;SDS011;51672;51.230;-2.322;2023-01-30T05:05:01;15.57;;;3.08;;
65077;SDS011;51672;51.230;-2.322;2023-01-30T05:08:43;16.13;;;2.78;;
65077;SDS011;51672;51.230;-2.322;2023-01-30T05:12:29;11.93;;;2.50;;
65077;SDS011;51672;51.230;-2.322;2023-01-30T05:16:11;13.63;;;2.45;;
65077;SDS011;51672;51.230;-2.322;2023-01-30T05:19:54;17.25;;;2.28;;
65077;SDS011;51672;51.230;-2.322;2023-01-30T05:23:36;14.70;;;1.83;;
65077;SDS011;51672;51.230;-2.322;2023-01-30T05:27:18;13.90;;;1.80;;
65077;SDS011;51672;51.230;-2.322;2023-01-30T05:31:04;11.38;;;1.20;;
65077;SDS011;51672;51.230;-2.322;2023-01-30T05:34:51;14.52;;;1.58;;
65077;SDS011;51672;51.230;-2.322;2023-01-30T05:38:33;13.00;;;1.50;;
65077;SDS011;51672;51.230;-2.322;2023-01-30T05:42:15;13.15;;;1.65;;
65077;SDS011;51672;51.230;-2.322;2023-01-30T05:45:58;14.43;;;1.30;;
65077;SDS011;51672;51.230;-2.322;2023-01-30T05:49:41;11.90;;;1.47;;
65077;SDS011;51672;51.230;-2.322;2023-01-30T05:53:23;12.98;;;1.73;;
65077;SDS011;51672;51.230;-2.322;2023-01-30T05:57:08;12.27;;;1.23;;
65077;SDS011;51672;51.230;-2.322;2023-01-30T06:00:49;14.03;;;1.80;;
65077;SDS011;51672;51.230;-2.322;2023-01-30T06:04:32;10.13;;;1.75;;
65077;SDS011;51672;51.230;-2.322;2023-01-30T06:08:14;15.65;;;1.60;;
65077;SDS011;51672;51.230;-2.322;2023-01-30T06:11:56;12.07;;;1.77;;
65077;SDS011;51672;51.230;-2.322;2023-01-30T06:15:38;17.03;;;2.20;;
65077;SDS011;51672;51.230;-2.322;2023-01-30T06:19:20;17.42;;;1.77;;
65077;SDS011;51672;51.230;-2.322;2023-01-30T06:23:02;10.32;;;1.40;;
65077;SDS011;51672;51.230;-2.322;2023-01-30T06:26:44;17.53;;;1.50;;
65077;SDS011;51672;51.230;-2.322;2023-01-30T06:30:26;12.77;;;1.60;;
65077;SDS011;51672;51.230;-2.322;2023-01-30T06:34:09;9.25;;;1.35;;
65077;SDS011;51672;51.230;-2.322;2023-01-30T06:37:52;11.00;;;1.63;;
65077;SDS011;51672;51.230;-2.322;2023-01-30T06:41:34;12.60;;;1.50;;
65077;SDS011;51672;51.230;-2.322;2023-01-30T06:45:16;14.38;;;1.70;;
65077;SDS011;51672;51.230;-2.322;2023-01-30T06:49:00;11.45;;;2.60;;
65077;SDS011;51672;51.230;-2.322;2023-01-30T06:52:42;7.10;;;1.20;;
65077;SDS011;51672;51.230;-2.322;2023-01-30T06:56:25;11.57;;;1.40;;
65077;SDS011;51672;51.230;-2.322;2023-01-30T07:00:09;12.68;;;1.85;;
65077;SDS011;51672;51.230;-2.322;2023-01-30T07:03:52;11.07;;;1.50;;
65077;SDS011;51672;51.230;-2.322;2023-01-30T07:07:35;11.65;;;1.50;;
65077;SDS011;51672;51.230;-2.322;2023-01-30T07:11:17;13.65;;;1.55;;
65077;SDS011;51672;51.230;-2.322;2023-01-30T07:14:59;13.87;;;1.60;;
65077;SDS011;51672;51.230;-2.322;2023-01-30T07:18:41;13.65;;;2.35;;
65077;SDS011;51672;51.230;-2.322;2023-01-30T07:22:23;10.77;;;1.90;;
65077;SDS011;51672;51.230;-2.322;2023-01-30T07:26:05;11.65;;;2.00;;
65077;SDS011;51672;51.230;-2.322;2023-01-30T07:29:47;16.10;;;2.33;;
65077;SDS011;51672;51.230;-2.322;2023-01-30T07:33:32;13.13;;;1.70;;
65077;SDS011;51672;51.230;-2.322;2023-01-30T07:37:13;11.60;;;1.95;;
65077;SDS011;51672;51.230;-2.322;2023-01-30T07:40:56;13.50;;;2.07;;
65077;SDS011;51672;51.230;-2.322;2023-01-30T07:44:39;11.68;;;2.40;;
65077;SDS011;51672;51.230;-2.322;2023-01-30T07:48:21;15.70;;;2.47;;
65077;SDS011;51672;51.230;-2.322;2023-01-30T07:52:03;9.40;;;1.90;;
65077;SDS011;51672;51.230;-2.322;2023-01-30T07:55:45;9.23;;;1.60;;
65077;SDS011;51672;51.230;-2.322;2023-01-30T07:59:27;14.73;;;1.80;;
65077;SDS011;51672;51.230;-2.322;2023-01-30T08:03:13;13.23;;;1.80;;
65077;SDS011;51672;51.230;-2.322;2023-01-30T08:06:56;15.73;;;1.80;;
65077;SDS011;51672;51.230;-2.322;2023-01-30T08:10:38;14.63;;;2.25;;
65077;SDS011;51672;51.230;-2.322;2023-01-30T08:14:20;16.88;;;1.92;;
65077;SDS011;51672;51.230;-2.322;2023-01-30T08:18:02;11.13;;;1.83;;
65077;SDS011;51672;51.230;-2.322;2023-01-30T08:21:44;13.13;;;1.40;;
65077;SDS011;51672;51.230;-2.322;2023-01-30T08:25:26;19.10;;;2.88;;
65077;SDS011;51672;51.230;-2.322;2023-01-30T08:29:09;9.80;;;1.77;;
65077;SDS011;51672;51.230;-2.322;2023-01-30T08:32:51;11.88;;;2.20;;
65077;SDS011;51672;51.230;-2.322;2023-01-30T08:36:33;9.95;;;1.92;;
65077;SDS011;51672;51.230;-2.322;2023-01-30T08:40:15;11.52;;;1.98;;
65077;SDS011;51672;51.230;-2.322;2023-01-30T08:43:58;10.07;;;1.70;;
65077;SDS011;51672;51.230;-2.322;2023-01-30T08:47:40;15.13;;;2.45;;
65077;SDS011;51672;51.230;-2.322;2023-01-30T08:51:22;9.90;;;1.95;;
65077;SDS011;51672;51.230;-2.322;2023-01-30T08:55:04;11.87;;;1.83;;
65077;SDS011;51672;51.230;-2.322;2023-01-30T08:58:46;11.65;;;1.38;;
65077;SDS011;51672;51.230;-2.322;2023-01-30T09:06:29;17.23;;;3.97;;
65077;SDS011;51672;51.230;-2.322;2023-01-30T09:14:17;14.75;;;2.00;;
65077;SDS011;51672;51.230;-2.322;2023-01-30T09:18:00;29.65;;;2.78;;
65077;SDS011;51672;51.230;-2.322;2023-01-30T09:21:51;26.80;;;4.33;;
65077;SDS011;51672;51.230;-2.322;2023-01-30T09:25:33;17.52;;;5.30;;
65077;SDS011;51672;51.230;-2.322;2023-01-30T09:29:15;18.50;;;4.85;;
65077;SDS011;51672;51.230;-2.322;2023-01-30T09:37:11;19.92;;;2.72;;
65077;SDS011;51672;51.230;-2.322;2023-01-30T09:49:17;14.63;;;2.42;;
65077;SDS011;51672;51.230;-2.322;2023-01-30T09:57:56;12.15;;;1.73;;
65077;SDS011;51672;51.230;-2.322;2023-01-30T10:01:45;10.60;;;1.70;;
65077;SDS011;51672;51.230;-2.322;2023-01-30T10:17:54;10.20;;;1.63;;
65077;SDS011;51672;51.230;-2.322;2023-01-30T10:26:20;9.13;;;1.50;;
65077;SDS011;51672;51.230;-2.322;2023-01-30T10:30:06;13.10;;;1.67;;
65077;SDS011;51672;51.230;-2.322;2023-01-30T10:34:14;12.15;;;2.22;;
65077;SDS011;51672;51.230;-2.322;2023-01-30T10:47:03;11.65;;;1.70;;
65077;SDS011;51672;51.230;-2.322;2023-01-30T10:56:07;16.92;;;2.50;;
65077;SDS011;51672;51.230;-2.322;2023-01-30T11:00:33;10.32;;;1.50;;
65077;SDS011;51672;51.230;-2.322;2023-01-30T11:05:03;12.53;;;2.13;;
65077;SDS011;51672;51.230;-2.322;2023-01-30T11:09:08;9.75;;;1.48;;
65077;SDS011;51672;51.230;-2.322;2023-01-30T11:12:54;11.35;;;1.55;;
65077;SDS011;51672;51.230;-2.322;2023-01-30T11:17:14;12.00;;;1.93;;
65077;SDS011;51672;51.230;-2.322;2023-01-30T11:29:33;13.15;;;2.30;;
65077;SDS011;51672;51.230;-2.322;2023-01-30T11:37:42;17.38;;;2.60;;
65077;SDS011;51672;51.230;-2.322;2023-01-30T11:49:42;13.52;;;1.60;;
65077;SDS011;51672;51.230;-2.322;2023-01-30T11:53:55;13.02;;;1.70;;
65077;SDS011;51672;51.230;-2.322;2023-01-30T11:57:47;14.00;;;1.70;;
65077;SDS011;51672;51.230;-2.322;2023-01-30T12:05:52;12.35;;;1.60;;
65077;SDS011;51672;51.230;-2.322;2023-01-30T12:09:58;10.75;;;1.70;;
65077;SDS011;51672;51.230;-2.322;2023-01-30T12:13:41;13.57;;;1.80;;
65077;SDS011;51672;51.230;-2.322;2023-01-30T12:21:41;13.18;;;1.60;;
65077;SDS011;51672;51.230;-2.322;2023-01-30T12:26:04;10.67;;;1.50;;
65077;SDS011;51672;51.230;-2.322;2023-01-30T12:34:34;10.15;;;1.05;;
65077;SDS011;51672;51.230;-2.322;2023-01-30T12:51:45;12.35;;;2.28;;
65077;SDS011;51672;51.230;-2.322;2023-01-30T13:18:41;12.13;;;1.67;;
65077;SDS011;51672;51.230;-2.322;2023-01-30T13:27:24;11.63;;;1.75;;
65077;SDS011;51672;51.230;-2.322;2023-01-30T13:31:10;13.80;;;1.60;;
65077;SDS011;51672;51.230;-2.322;2023-01-30T13:35:39;14.75;;;1.88;;
65077;SDS011;51672;51.230;-2.322;2023-01-30T13:39:58;8.43;;;1.60;;
65077;SDS011;51672;51.230;-2.322;2023-01-30T13:44:22;13.07;;;1.80;;
65077;SDS011;51672;51.230;-2.322;2023-01-30T14:01:12;9.70;;;1.70;;
65077;SDS011;51672;51.230;-2.322;2023-01-30T14:04:55;13.27;;;1.50;;
65077;SDS011;51672;51.230;-2.322;2023-01-30T14:26:01;14.98;;;1.88;;
65077;SDS011;51672;51.230;-2.322;2023-01-30T14:34:26;13.47;;;1.90;;
65077;SDS011;51672;51.230;-2.322;2023-01-30T14:38:39;11.45;;;1.30;;
65077;SDS011;51672;51.230;-2.322;2023-01-30T14:50:48;12.55;;;1.80;;
65077;SDS011;51672;51.230;-2.322;2023-01-30T14:54:31;10.30;;;1.70;;
65077;SDS011;51672;51.230;-2.322;2023-01-30T15:06:48;14.88;;;2.10;;
65077;SDS011;51672;51.230;-2.322;2023-01-30T15:27:10;15.63;;;1.90;;
65077;SDS011;51672;51.230;-2.322;2023-01-30T15:31:21;10.25;;;1.77;;
65077;SDS011;51672;51.230;-2.322;2023-01-30T15:39:27;15.20;;;2.35;;
65077;SDS011;51672;51.230;-2.322;2023-01-30T15:51:35;7.43;;;1.50;;
65077;SDS011;51672;51.230;-2.322;2023-01-30T15:55:19;10.98;;;1.83;;
65077;SDS011;51672;51.230;-2.322;2023-01-30T16:13:18;10.97;;;1.80;;
65077;SDS011;51672;51.230;-2.322;2023-01-30T16:17:27;12.65;;;1.90;;
65077;SDS011;51672;51.230;-2.322;2023-01-30T16:25:26;13.30;;;2.13;;
65077;SDS011;51672;51.230;-2.322;2023-01-30T16:42:30;12.50;;;1.90;;
65077;SDS011;51672;51.230;-2.322;2023-01-30T16:59:33;12.60;;;2.45;;
65077;SDS011;51672;51.230;-2.322;2023-01-30T17:03:47;16.15;;;2.92;;
65077;SDS011;51672;51.230;-2.322;2023-01-30T17:07:33;18.50;;;4.57;;
65077;SDS011;51672;51.230;-2.322;2023-01-30T17:18:57;17.50;;;2.55;;
65077;SDS011;51672;51.230;-2.322;2023-01-30T17:22:41;21.93;;;2.60;;
65077;SDS011;51672;51.230;-2.322;2023-01-30T17:26:25;11.48;;;2.65;;
65077;SDS011;51672;51.230;-2.322;2023-01-30T17:30:14;11.10;;;2.58;;
65077;SDS011;51672;51.230;-2.322;2023-01-30T17:33:58;12.65;;;2.65;;
65077;SDS011;51672;51.230;-2.322;2023-01-30T17:37:40;18.92;;;4.38;;
65077;SDS011;51672;51.230;-2.322;2023-01-30T17:41:26;16.25;;;4.00;;
65077;SDS011;51672;51.230;-2.322;2023-01-30T17:45:11;18.17;;;5.03;;
65077;SDS011;51672;51.230;-2.322;2023-01-30T17:48:53;23.57;;;4.30;;
65077;SDS011;51672;51.230;-2.322;2023-01-30T17:52:36;16.88;;;3.78;;
65077;SDS011;51672;51.230;-2.322;2023-01-30T17:56:20;15.30;;;3.58;;
65077;SDS011;51672;51.230;-2.322;2023-01-30T18:00:09;14.47;;;4.53;;
65077;SDS011;51672;51.230;-2.322;2023-01-30T18:03:57;15.05;;;4.28;;
65077;SDS011;51672;51.230;-2.322;2023-01-30T18:07:39;14.77;;;3.90;;
65077;SDS011;51672;51.230;-2.322;2023-01-30T18:11:21;17.37;;;4.47;;
65077;SDS011;51672;51.230;-2.322;2023-01-30T18:15:03;17.88;;;4.47;;
65077;SDS011;51672;51.230;-2.322;2023-01-30T18:18:46;13.23;;;3.50;;
65077;SDS011;51672;51.230;-2.322;2023-01-30T18:22:28;18.92;;;4.32;;
65077;SDS011;51672;51.230;-2.322;2023-01-30T18:26:10;13.83;;;4.00;;
65077;SDS011;51672;51.230;-2.322;2023-01-30T18:29:53;18.98;;;4.40;;
65077;SDS011;51672;51.230;-2.322;2023-01-30T18:33:35;16.90;;;4.60;;
65077;SDS011;51672;51.230;-2.322;2023-01-30T18:37:17;17.73;;;4.13;;
65077;SDS011;51672;51.230;-2.322;2023-01-30T18:41:06;16.73;;;3.42;;
65077;SDS011;51672;51.230;-2.322;2023-01-30T18:44:48;16.55;;;3.85;;
65077;SDS011;51672;51.230;-2.322;2023-01-30T18:48:31;15.87;;;3.63;;
65077;SDS011;51672;51.230;-2.322;2023-01-30T18:52:14;11.20;;;3.58;;
65077;SDS011;51672;51.230;-2.322;2023-01-30T18:55:55;13.77;;;2.90;;
65077;SDS011;51672;51.230;-2.322;2023-01-30T18:59:38;16.15;;;2.90;;
65077;SDS011;51672;51.230;-2.322;2023-01-30T19:03:21;17.60;;;2.77;;
65077;SDS011;51672;51.230;-2.322;2023-01-30T19:07:03;11.18;;;2.65;;
65077;SDS011;51672;51.230;-2.322;2023-01-30T19:10:46;12.10;;;2.97;;
65077;SDS011;51672;51.230;-2.322;2023-01-30T19:14:28;12.37;;;2.87;;
65077;SDS011;51672;51.230;-2.322;2023-01-30T19:18:09;14.93;;;2.65;;
65077;SDS011;51672;51.230;-2.322;2023-01-30T19:21:51;13.23;;;3.60;;
65077;SDS011;51672;51.230;-2.322;2023-01-30T19:25:33;16.30;;;3.97;;
65077;SDS011;51672;51.230;-2.322;2023-01-30T19:29:17;13.18;;;3.20;;
65077;SDS011;51672;51.230;-2.322;2023-01-30T19:32:58;13.52;;;3.60;;
65077;SDS011;51672;51.230;-2.322;2023-01-30T19:36:40;12.05;;;3.75;;
65077;SDS011;51672;51.230;-2.322;2023-01-30T19:40:22;14.50;;;4.17;;
65077;SDS011;51672;51.230;-2.322;2023-01-30T19:44:05;11.77;;;3.97;;
65077;SDS011;51672;51.230;-2.322;2023-01-30T19:47:48;17.27;;;4.63;;
65077;SDS011;51672;51.230;-2.322;2023-01-30T19:51:31;18.23;;;4.60;;
65077;SDS011;51672;51.230;-2.322;2023-01-30T19:55:15;13.27;;;4.55;;
65077;SDS011;51672;51.230;-2.322;2023-01-30T19:58:59;16.77;;;5.18;;
65077;SDS011;51672;51.230;-2.322;2023-01-30T20:02:41;12.20;;;4.40;;
65077;SDS011;51672;51.230;-2.322;2023-01-30T20:06:25;21.48;;;4.85;;
65077;SDS011;51672;51.230;-2.322;2023-01-30T20:10:09;18.77;;;4.80;;
65077;SDS011;51672;51.230;-2.322;2023-01-30T20:13:51;14.70;;;5.00;;
65077;SDS011;51672;51.230;-2.322;2023-01-30T20:17:36;13.80;;;4.73;;
65077;SDS011;51672;51.230;-2.322;2023-01-30T20:21:19;18.75;;;4.88;;
65077;SDS011;51672;51.230;-2.322;2023-01-30T20:25:01;16.33;;;5.63;;
65077;SDS011;51672;51.230;-2.322;2023-01-30T20:28:44;17.17;;;4.77;;
65077;SDS011;51672;51.230;-2.322;2023-01-30T20:32:25;18.15;;;4.30;;
65077;SDS011;51672;51.230;-2.322;2023-01-30T20:36:09;15.38;;;4.15;;
65077;SDS011;51672;51.230;-2.322;2023-01-30T20:39:53;13.10;;;3.33;;
65077;SDS011;51672;51.230;-2.322;2023-01-30T20:43:36;12.07;;;3.45;;
65077;SDS011;51672;51.230;-2.322;2023-01-30T20:47:19;14.40;;;3.60;;
65077;SDS011;51672;51.230;-2.322;2023-01-30T20:51:06;17.15;;;4.13;;
65077;SDS011;51672;51.230;-2.322;2023-01-30T20:54:49;15.30;;;3.87;;
65077;SDS011;51672;51.230;-2.322;2023-01-30T20:58:31;16.05;;;4.60;;
65077;SDS011;51672;51.230;-2.322;2023-01-30T21:02:13;11.80;;;3.42;;
65077;SDS011;51672;51.230;-2.322;2023-01-30T21:05:56;14.60;;;3.13;;
65077;SDS011;51672;51.230;-2.322;2023-01-30T21:09:39;11.05;;;3.63;;
65077;SDS011;51672;51.230;-2.322;2023-01-30T21:13:21;16.52;;;4.00;;
65077;SDS011;51672;51.230;-2.322;2023-01-30T21:17:04;12.47;;;3.03;;
65077;SDS011;51672;51.230;-2.322;2023-01-30T21:20:47;15.82;;;3.60;;
65077;SDS011;51672;51.230;-2.322;2023-01-30T21:24:30;16.30;;;2.75;;
65077;SDS011;51672;51.230;-2.322;2023-01-30T21:28:12;11.93;;;3.25;;
65077;SDS011;51672;51.230;-2.322;2023-01-30T21:31:54;14.90;;;3.20;;
65077;SDS011;51672;51.230;-2.322;2023-01-30T21:35:37;10.85;;;2.97;;
65077;SDS011;51672;51.230;-2.322;2023-01-30T21:39:19;11.32;;;3.08;;
65077;SDS011;51672;51.230;-2.322;2023-01-30T21:43:19;9.63;;;2.83;;
65077;SDS011;51672;51.230;-2.322;2023-01-30T21:47:02;17.02;;;3.75;;
65077;SDS011;51672;51.230;-2.322;2023-01-30T21:50:45;16.95;;;4.15;;
65077;SDS011;51672;51.230;-2.322;2023-01-30T21:54:29;15.20;;;3.43;;
65077;SDS011;51672;51.230;-2.322;2023-01-30T21:58:11;15.02;;;3.45;;
65077;SDS011;51672;51.230;-2.322;2023-01-30T22:01:53;14.75;;;3.92;;
65077;SDS011;51672;51.230;-2.322;2023-01-30T22:05:35;12.57;;;3.60;;
65077;SDS011;51672;51.230;-2.322;2023-01-30T22:09:17;15.10;;;3.17;;
65077;SDS011;51672;51.230;-2.322;2023-01-30T22:13:00;15.35;;;4.05;;
65077;SDS011;51672;51.230;-2.322;2023-01-30T22:16:42;12.75;;;3.70;;
65077;SDS011;51672;51.230;-2.322;2023-01-30T22:20:24;17.83;;;3.73;;
65077;SDS011;51672;51.230;-2.322;2023-01-30T22:24:07;18.42;;;3.90;;
65077;SDS011;51672;51.230;-2.322;2023-01-30T22:27:51;15.25;;;3.92;;
65077;SDS011;51672;51.230;-2.322;2023-01-30T22:31:34;17.63;;;4.30;;
65077;SDS011;51672;51.230;-2.322;2023-01-30T22:35:18;17.25;;;4.32;;
65077;SDS011;51672;51.230;-2.322;2023-01-30T22:39:01;15.00;;;3.97;;
65077;SDS011;51672;51.230;-2.322;2023-01-30T22:42:45;20.13;;;4.78;;
65077;SDS011;51672;51.230;-2.322;2023-01-30T22:46:30;15.80;;;3.70;;
65077;SDS011;51672;51.230;-2.322;2023-01-30T22:50:14;14.55;;;3.90;;
65077;SDS011;51672;51.230;-2.322;2023-01-30T22:53:57;14.30;;;4.50;;
65077;SDS011;51672;51.230;-2.322;2023-01-30T22:57:40;17.90;;;4.20;;
65077;SDS011;51672;51.230;-2.322;2023-01-30T23:01:26;15.07;;;3.30;;
65077;SDS011;51672;51.230;-2.322;2023-01-30T23:05:10;15.50;;;3.55;;
65077;SDS011;51672;51.230;-2.322;2023-01-30T23:08:52;19.60;;;4.03;;
65077;SDS011;51672;51.230;-2.322;2023-01-30T23:12:35;18.63;;;5.40;;
65077;SDS011;51672;51.230;-2.322;2023-01-30T23:16:36;16.67;;;4.10;;
65077;SDS011;51672;51.230;-2.322;2023-01-30T23:20:20;20.90;;;4.03;;
65077;SDS011;51672;51.230;-2.322;2023-01-30T23:24:06;17.03;;;3.77;;
65077;SDS011;51672;51.230;-2.322;2023-01-30T23:27:56;12.63;;;4.18;;
65077;SDS011;51672;51.230;-2.322;2023-01-30T23:31:38;13.15;;;3.28;;
65077;SDS011;51672;51.230;-2.322;2023-01-30T23:35:21;12.17;;;3.53;;
65077;SDS011;51672;51.230;-2.322;2023-01-30T23:39:04;17.55;;;3.63;;
65077;SDS011;51672;51.230;-2.322;2023-01-30T23:42:45;17.98;;;3.35;;
65077;SDS011;51672;51.230;-2.322;2023-01-30T23:46:29;14.43;;;3.57;;
65077;SDS011;51672;51.230;-2.322;2023-01-30T23:50:13;14.10;;;3.65;;
65077;SDS011;51672;51.230;-2.322;2023-01-30T23:53:55;16.00;;;4.13;;
65077;SDS011;51672;51.230;-2.322;2023-01-30T23:57:38;16.98;;;3.38;;
